Time;durP1;ratioP1;P1;durP2;ratioP2;P2;SDS_P1;SDS_P2;PMS_P1;PMS_P2;Temp;Humidity;BMP_temperature;BMP_pressure;BME280_temperature;BME280_humidity;BME280_pressure;Samples;Min_cycle;Max_cycle;Signal;HPM_P1;HPM_P2
2024/04/21 00:00:34;;;;;;;4.03;1.00;;;;;;;12.67;45.08;98198.28;6581198;21;20021;-76
2024/04/21 00:03:00;;;;;;;2.00;1.00;;;;;;;12.72;44.81;98205.69;6491064;21;20066;-76
2024/04/21 00:05:25;;;;;;;5.07;1.00;;;;;;;12.71;44.75;98198.81;6536026;21;19988;-76
2024/04/21 00:07:51;;;;;;;1.83;0.80;;;;;;;12.75;44.75;98207.22;6534738;21;19992;-76
2024/04/21 00:10:16;;;;;;;1.67;0.85;;;;;;;12.76;44.79;98214.09;6492503;21;20000;-76
2024/04/21 00:12:42;;;;;;;1.10;0.90;;;;;;;12.74;44.68;98205.56;6535701;21;20062;-76
2024/04/21 00:15:07;;;;;;;1.65;1.00;;;;;;;12.74;45.00;98213.41;6534690;21;19992;-76
2024/04/21 00:17:34;;;;;;;1.65;0.93;;;;;;;12.70;44.86;98194.56;6579384;21;20285;-76
2024/04/21 00:20:00;;;;;;;1.80;0.90;;;;;;;12.77;45.04;98210.50;6492048;21;19998;-76
2024/04/21 00:22:25;;;;;;;3.22;0.95;;;;;;;12.74;45.03;98211.63;6490105;21;19992;-76
2024/04/21 00:24:51;;;;;;;1.58;0.90;;;;;;;12.72;45.14;98203.09;6580676;21;20407;-76
2024/04/21 00:27:16;;;;;;;1.30;0.88;;;;;;;12.78;45.21;98213.00;6535415;21;20287;-77
2024/04/21 00:29:42;;;;;;;3.15;1.20;;;;;;;12.82;45.10;98224.84;6491475;21;19989;-76
2024/04/21 00:32:07;;;;;;;2.15;0.77;;;;;;;12.81;45.24;98223.19;6491543;21;19993;-76
2024/04/21 00:34:33;;;;;;;1.60;0.98;;;;;;;12.81;44.97;98224.97;6580833;21;19992;-76
2024/04/21 00:36:58;;;;;;;1.67;0.82;;;;;;;12.87;44.87;98234.84;6535156;21;20395;-76
2024/04/21 00:39:24;;;;;;;1.88;0.82;;;;;;;12.87;45.49;98234.03;6578551;21;19992;-76
2024/04/21 00:41:49;;;;;;;0.98;0.73;;;;;;;12.82;45.57;98227.47;6535102;21;19992;-76
2024/04/21 00:44:14;;;;;;;1.15;0.77;;;;;;;12.84;45.40;98233.38;6579037;21;19992;-76
2024/04/21 00:46:40;;;;;;;1.42;0.85;;;;;;;12.82;45.95;98226.63;6535201;21;20003;-76
2024/04/21 00:49:06;;;;;;;1.63;0.90;;;;;;;12.80;45.83;98226.75;6490481;21;20000;-76
2024/04/21 00:51:31;;;;;;;1.00;0.80;;;;;;;12.82;45.76;98231.84;6533173;21;20304;-76
2024/04/21 00:53:58;;;;;;;1.63;0.93;;;;;;;12.85;45.54;98231.56;6535200;21;20007;-76
2024/04/21 00:56:23;;;;;;;1.55;0.90;;;;;;;12.83;45.78;98229.09;6491725;21;19988;-77
2024/04/21 00:58:50;;;;;;;2.42;0.77;;;;;;;12.85;45.45;98228.94;6580319;21;19993;-77
2024/04/21 01:01:16;;;;;;;1.70;1.00;;;;;;;12.87;45.48;98237.47;6578551;21;19994;-76
2024/04/21 01:03:41;;;;;;;1.17;0.70;;;;;;;12.88;45.76;98233.09;6490366;21;20063;-76
2024/04/21 01:06:07;;;;;;;1.60;0.90;;;;;;;12.87;45.74;98232.25;6489710;21;19988;-76
2024/04/21 01:08:32;;;;;;;1.52;0.80;;;;;;;12.91;45.75;98238.03;6492118;21;20047;-76
2024/04/21 01:10:58;;;;;;;1.60;0.90;;;;;;;12.93;45.83;98242.16;6491784;21;20391;-76
2024/04/21 01:13:26;;;;;;;2.33;1.15;;;;;;;12.92;45.39;98240.50;6492956;21;19999;-76
2024/04/21 01:15:52;;;;;;;1.70;1.20;;;;;;;12.94;45.50;98246.41;6577397;21;20401;-76
2024/04/21 01:18:18;;;;;;;2.50;1.65;;;;;;;12.94;45.35;98243.81;6490459;21;20269;-76
2024/04/21 01:20:44;;;;;;;3.05;1.83;;;;;;;12.93;44.93;98243.94;6533777;21;19988;-76
2024/04/21 01:23:10;;;;;;;4.00;2.10;;;;;;;12.94;44.90;98246.41;6491244;21;19999;-76
2024/04/21 01:25:35;;;;;;;2.60;1.90;;;;;;;12.96;44.88;98254.13;6577852;21;20000;-75
2024/04/21 01:28:00;;;;;;;2.40;1.80;;;;;;;12.95;44.92;98248.09;6531624;21;20396;-77
2024/04/21 01:30:26;;;;;;;2.67;2.10;;;;;;;12.94;44.43;98243.81;6533961;21;19988;-77
2024/04/21 01:32:52;;;;;;;4.43;2.30;;;;;;;12.97;44.38;98258.41;6534902;21;19992;-77
2024/04/21 01:35:17;;;;;;;3.42;2.40;;;;;;;12.96;43.83;98254.13;6534559;21;19992;-75
2024/04/21 01:37:43;;;;;;;5.32;2.70;;;;;;;12.96;43.48;98262.81;6578428;21;20004;-76
2024/04/21 01:40:08;;;;;;;5.22;2.92;;;;;;;12.96;43.23;98268.06;6580226;21;20004;-77
2024/04/21 01:42:34;;;;;;;5.38;2.90;;;;;;;12.96;43.23;98272.47;6578116;21;19988;-76
2024/04/21 01:44:59;;;;;;;3.90;3.17;;;;;;;12.97;43.38;98277.56;6534601;21;20000;-75
2024/04/21 01:47:25;;;;;;;5.07;3.60;;;;;;;13.01;42.94;98283.34;6534378;21;20000;-76
2024/04/21 01:49:50;;;;;;;5.30;4.30;;;;;;;13.00;43.29;98290.38;6492319;21;19998;-76
2024/04/21 01:52:15;;;;;;;5.70;4.60;;;;;;;13.01;43.30;98286.81;6489594;21;20454;-76
2024/04/21 01:54:41;;;;;;;8.80;5.35;;;;;;;12.96;43.39;98291.63;6489720;21;20418;-77
2024/04/21 01:57:06;;;;;;;6.75;5.20;;;;;;;13.01;43.57;98293.81;6534716;21;19988;-77
2024/04/21 01:59:32;;;;;;;5.45;4.60;;;;;;;12.98;43.71;98284.47;6579254;21;20008;-76
2024/04/21 02:01:57;;;;;;;5.40;4.50;;;;;;;12.97;44.02;98280.19;6577967;21;20324;-76
2024/04/21 02:04:23;;;;;;;7.75;4.45;;;;;;;12.93;44.26;98280.63;6491652;21;20015;-77
2024/04/21 02:06:50;;;;;;;6.82;4.03;;;;;;;12.93;44.38;98278.81;6578281;21;20066;-76
2024/04/21 02:09:15;;;;;;;6.45;4.22;;;;;;;12.95;44.61;98276.06;6535654;21;20000;-76
2024/04/21 02:11:41;;;;;;;5.18;4.10;;;;;;;12.97;44.42;98285.44;6537518;21;20003;-76
2024/04/21 02:14:06;;;;;;;6.00;4.60;;;;;;;12.96;44.80;98288.19;6537646;21;19988;-76
2024/04/21 02:16:31;;;;;;;4.80;4.03;;;;;;;12.96;44.97;98289.00;6583440;21;19988;-76
2024/04/21 02:18:57;;;;;;;4.95;4.13;;;;;;;13.00;45.26;98300.06;6536727;21;20003;-76
2024/04/21 02:21:22;;;;;;;6.50;4.85;;;;;;;12.97;45.23;98295.09;6536728;21;20004;-76
2024/04/21 02:23:48;;;;;;;4.97;4.15;;;;;;;12.94;45.25;98287.53;6537000;21;20304;-76
2024/04/21 02:26:13;;;;;;;5.25;3.97;;;;;;;12.94;45.41;98277.88;6537488;21;20002;-77
2024/04/21 02:28:39;;;;;;;6.82;4.13;;;;;;;13.00;45.37;98284.34;6493477;21;19996;-77
2024/04/21 02:31:05;;;;;;;7.65;4.00;;;;;;;12.96;45.76;98283.78;6537721;21;20296;-76
2024/04/21 02:33:30;;;;;;;6.72;4.10;;;;;;;12.89;45.91;98282.72;6536501;21;20039;-76
2024/04/21 02:35:56;;;;;;;4.80;3.60;;;;;;;12.88;45.80;98275.00;6535596;21;20424;-77
2024/04/21 02:38:23;;;;;;;4.15;3.45;;;;;;;12.88;45.96;98288.91;6580125;21;19992;-77
2024/04/21 02:40:48;;;;;;;3.85;3.10;;;;;;;12.82;45.90;98277.22;6537412;21;19996;-77
2024/04/21 02:43:14;;;;;;;3.60;2.80;;;;;;;12.81;46.09;98274.75;6536592;21;19992;-77
2024/04/21 02:45:39;;;;;;;3.90;3.00;;;;;;;12.81;45.96;98274.75;6536612;21;20370;-75
2024/04/21 02:48:05;;;;;;;4.35;2.70;;;;;;;12.83;46.03;98284.09;6582191;21;19993;-77
2024/04/21 02:50:31;;;;;;;6.38;3.08;;;;;;;12.78;45.79;98272.41;6536103;21;19992;-77
2024/04/21 02:52:56;;;;;;;4.25;2.47;;;;;;;12.76;46.21;98272.56;6536717;21;20054;-75
2024/04/21 02:55:22;;;;;;;7.13;2.80;;;;;;;12.73;45.95;98270.22;6535665;21;20062;-75
2024/04/21 02:57:48;;;;;;;8.98;2.60;;;;;;;12.65;46.31;98262.22;6535702;21;20000;-76
2024/04/21 03:00:13;;;;;;;3.22;2.38;;;;;;;12.65;46.15;98257.81;6536181;21;20422;-76
2024/04/21 03:02:39;;;;;;;2.85;2.40;;;;;;;12.67;46.17;98262.94;6493176;21;19997;-76
2024/04/21 03:05:05;;;;;;;3.00;2.17;;;;;;;12.64;45.95;98269.25;6493810;21;19988;-75
2024/04/21 03:07:30;;;;;;;2.83;2.13;;;;;;;12.58;45.96;98275.06;6535521;21;19989;-75
2024/04/21 03:09:55;;;;;;;3.50;2.50;;;;;;;12.54;46.37;98278.94;6536440;21;20004;-75
2024/04/21 03:12:21;;;;;;;4.25;2.10;;;;;;;12.54;46.25;98271.09;6537151;21;19989;-76
2024/04/21 03:14:46;;;;;;;7.03;2.60;;;;;;;12.53;46.44;98274.66;6492844;21;20062;-75
2024/04/21 03:17:12;;;;;;;5.38;2.30;;;;;;;12.48;46.44;98269.84;6579541;21;19988;-77
2024/04/21 03:19:37;;;;;;;2.70;2.13;;;;;;;12.46;46.56;98269.16;6492977;21;20002;-77
2024/04/21 03:22:03;;;;;;;2.80;1.95;;;;;;;12.48;46.78;98277.69;6578510;21;19999;-77
2024/04/21 03:24:29;;;;;;;3.80;2.00;;;;;;;12.44;46.88;98278.13;6580279;21;19999;-77
2024/04/21 03:26:54;;;;;;;2.75;2.20;;;;;;;12.36;46.89;98268.34;6493071;21;19992;-77
2024/04/21 03:29:20;;;;;;;2.80;2.03;;;;;;;12.34;47.24;98272.09;6580115;21;20380;-77
2024/04/21 03:31:45;;;;;;;2.35;1.70;;;;;;;12.41;46.93;98284.47;6536183;21;19993;-77
2024/04/21 03:34:11;;;;;;;4.50;1.80;;;;;;;12.46;47.25;98279.66;6536920;21;20061;-78
2024/04/21 03:36:36;;;;;;;2.42;1.70;;;;;;;12.46;46.95;98279.66;6493691;21;20328;-78
2024/04/21 03:39:02;;;;;;;2.58;1.75;;;;;;;12.35;46.87;98281.56;6536501;21;20062;-76
2024/04/21 03:41:27;;;;;;;2.35;1.65;;;;;;;12.36;46.99;98281.44;6536597;21;19988;-76
2024/04/21 03:43:53;;;;;;;2.28;1.70;;;;;;;12.35;47.18;98292.03;6580120;21;19999;-78
2024/04/21 03:46:18;;;;;;;2.20;1.65;;;;;;;12.27;47.49;98288.34;6494224;21;20405;-77
2024/04/21 03:48:44;;;;;;;3.40;1.60;;;;;;;12.28;47.60;98297.81;6536346;21;20293;-78
2024/04/21 03:51:09;;;;;;;2.35;1.67;;;;;;;12.28;47.79;98291.78;6580091;21;19988;-76
2024/04/21 03:53:35;;;;;;;3.83;1.85;;;;;;;12.28;47.61;98289.16;6536759;21;20358;-77
2024/04/21 03:56:00;;;;;;;2.00;1.50;;;;;;;12.28;47.61;98291.78;6536468;21;19995;-78
2024/04/21 03:58:26;;;;;;;1.98;1.40;;;;;;;12.23;47.62;98281.72;6535185;21;20403;-78
2024/04/21 04:00:51;;;;;;;2.50;1.50;;;;;;;12.25;47.59;98292.88;6492786;21;20079;-78
2024/04/21 04:03:17;;;;;;;1.90;1.50;;;;;;;12.25;47.72;98289.44;6536340;21;20062;-78
2024/04/21 04:05:44;;;;;;;2.40;1.48;;;;;;;12.24;47.56;98295.63;6493350;21;20291;-78
2024/04/21 04:08:09;;;;;;;2.47;1.88;;;;;;;12.27;47.83;98311.06;6537605;21;19997;-78
2024/04/21 04:10:35;;;;;;;3.45;1.50;;;;;;;12.28;47.95;98300.44;6536667;21;20444;-78
2024/04/21 04:13:00;;;;;;;2.20;1.50;;;;;;;12.35;47.87;98302.50;6579741;21;19992;-77
2024/04/21 04:15:26;;;;;;;5.78;1.50;;;;;;;12.41;47.84;98299.34;6536592;21;20004;-78
2024/04/21 04:17:51;;;;;;;2.00;1.50;;;;;;;12.49;47.90;98308.16;6580067;21;20288;-78
2024/04/21 04:20:17;;;;;;;1.83;1.33;;;;;;;12.63;47.35;98306.06;6579714;21;19992;-78
2024/04/21 04:22:42;;;;;;;2.53;1.60;;;;;;;12.74;47.13;98311.13;6536037;21;19993;-79
2024/04/21 04:25:08;;;;;;;2.58;1.60;;;;;;;13.06;46.84;98322.22;6535506;21;19988;-77
2024/04/21 04:27:34;;;;;;;3.30;1.70;;;;;;;13.19;46.73;98318.31;6536569;21;20065;-79
2024/04/21 04:29:59;;;;;;;2.83;1.48;;;;;;;13.19;47.00;98315.69;6536184;21;19999;-77
2024/04/21 04:32:28;;;;;;;4.88;1.58;;;;;;;13.17;47.10;98315.03;6490822;21;19999;-77
2024/04/21 04:34:53;;;;;;;3.10;1.85;;;;;;;13.25;46.94;98323.94;6537018;21;20067;-78
2024/04/21 04:37:19;;;;;;;3.83;1.85;;;;;;;13.29;46.82;98326.13;6536454;21;20366;-77
2024/04/21 04:39:44;;;;;;;2.42;1.70;;;;;;;13.34;46.67;98329.16;6582175;21;19992;-76
2024/04/21 04:42:10;;;;;;;3.03;2.00;;;;;;;13.36;46.69;98326.41;6535649;21;19997;-77
2024/04/21 04:44:35;;;;;;;2.67;1.90;;;;;;;13.48;46.53;98335.75;6580081;21;20066;-77
2024/04/21 04:47:01;;;;;;;4.07;2.00;;;;;;;13.62;46.41;98325.75;6536147;21;20307;-78
2024/04/21 04:49:26;;;;;;;2.70;1.85;;;;;;;13.98;45.88;98325.78;6535690;21;19992;-77
2024/04/21 04:51:52;;;;;;;2.85;1.70;;;;;;;14.02;45.74;98327.16;6579970;21;20062;-76
2024/04/21 04:54:17;;;;;;;7.15;1.98;;;;;;;14.02;45.89;98324.53;6535493;21;19998;-78
2024/04/21 04:56:43;;;;;;;3.55;2.10;;;;;;;14.11;45.72;98329.69;6579379;21;19992;-79
2024/04/21 04:59:08;;;;;;;6.35;2.00;;;;;;;14.26;45.72;98329.16;6492359;21;19993;-75
2024/04/21 05:01:34;;;;;;;3.58;1.90;;;;;;;14.42;45.04;98318.81;6580940;21;20002;-76
2024/04/21 05:03:59;;;;;;;2.20;1.60;;;;;;;14.68;44.89;98318.06;6577624;21;20347;-79
2024/04/21 05:06:25;;;;;;;2.40;1.67;;;;;;;14.96;44.59;98325.78;6533309;21;19992;-76
2024/04/21 05:08:50;;;;;;;3.10;1.95;;;;;;;15.16;44.13;98315.88;6492217;21;20388;-74
2024/04/21 05:11:16;;;;;;;3.90;1.55;;;;;;;15.41;43.75;98313.38;6533561;21;19992;-80
2024/04/21 05:13:42;;;;;;;2.95;1.80;;;;;;;17.50;39.74;98317.34;6492364;21;19993;-75
2024/04/21 05:16:09;;;;;;;4.55;1.85;;;;;;;17.55;39.28;98316.81;6492857;21;19992;-73
2024/04/21 05:18:34;;;;;;;5.18;1.20;;;;;;;18.51;43.65;98321.88;6535919;21;19992;-79
2024/04/21 05:21:00;;;;;;;6.55;1.33;;;;;;;20.14;40.88;98314.91;6533854;21;19999;-77
2024/04/21 05:23:25;;;;;;;2.53;1.13;;;;;;;19.91;41.69;98321.22;6535304;21;19992;-76
2024/04/21 05:25:52;;;;;;;7.32;1.40;;;;;;;20.19;40.45;98317.81;6534163;21;20405;-75
2024/04/21 05:28:17;;;;;;;10.13;1.40;;;;;;;20.26;40.56;98326.66;6579477;21;19992;-78
2024/04/21 05:30:43;;;;;;;12.05;1.40;;;;;;;20.14;39.76;98322.84;6492682;21;20474;-77
2024/04/21 05:33:08;;;;;;;4.38;1.30;;;;;;;19.75;37.02;98327.53;6491922;21;20417;-76
2024/04/21 05:35:34;;;;;;;3.15;1.15;;;;;;;19.61;41.36;98331.81;6588192;21;19992;-83
2024/04/21 05:38:00;;;;;;;2.15;1.33;;;;;;;19.51;42.20;98326.81;6490794;21;20077;-76
2024/04/21 05:40:25;;;;;;;5.25;1.60;;;;;;;19.30;38.95;98324.91;6492308;21;20393;-74
2024/04/21 05:42:51;;;;;;;2.20;1.20;;;;;;;19.01;38.55;98331.03;6531391;21;19993;-75
2024/04/21 05:45:16;;;;;;;4.10;1.70;;;;;;;18.91;39.04;98333.94;6536625;21;20429;-77
2024/04/21 05:47:42;;;;;;;2.45;1.60;;;;;;;18.87;38.58;98340.59;6583044;21;20000;-77
2024/04/21 05:50:07;;;;;;;2.95;1.52;;;;;;;18.74;38.52;98333.22;6583042;21;20002;-76
2024/04/21 05:52:33;;;;;;;3.35;1.63;;;;;;;18.57;38.06;98335.19;6492280;21;20021;-77
2024/04/21 05:54:58;;;;;;;3.25;1.75;;;;;;;18.48;38.30;98330.97;6582858;21;19999;-76
2024/04/21 05:57:24;;;;;;;2.35;1.48;;;;;;;18.48;38.11;98328.31;6582958;21;20002;-77
2024/04/21 05:59:50;;;;;;;2.83;1.80;;;;;;;19.77;35.53;98322.88;6581347;21;20380;-76
2024/04/21 06:02:15;;;;;;;2.20;1.70;;;;;;;19.45;35.57;98332.00;6578468;21;19992;-75
2024/04/21 06:04:40;;;;;;;6.40;1.67;;;;;;;19.36;35.85;98328.66;6536821;21;20004;-74
2024/04/21 06:07:06;;;;;;;3.88;1.80;;;;;;;19.41;35.79;98328.91;6537372;21;20062;-77
2024/04/21 06:09:34;;;;;;;2.40;1.80;;;;;;;19.86;34.73;98323.56;6536270;21;19991;-78
2024/04/21 06:12:01;;;;;;;3.58;2.35;;;;;;;19.85;34.59;98329.91;6537651;21;19992;-76
2024/04/21 06:14:26;;;;;;;3.67;2.47;;;;;;;20.65;33.25;98335.16;6580160;21;20000;-73
2024/04/21 06:16:52;;;;;;;5.15;3.33;;;;;;;22.32;31.77;98339.50;6535480;21;19989;-74
2024/04/21 06:19:18;;;;;;;6.65;2.78;;;;;;;23.22;29.77;98331.09;6492395;21;20363;-74
2024/04/21 06:21:43;;;;;;;4.72;2.70;;;;;;;24.52;28.33;98330.03;6580743;21;19999;-73
2024/04/21 06:24:09;;;;;;;5.40;3.30;;;;;;;25.52;26.68;98328.28;6536751;21;19993;-73
2024/04/21 06:26:34;;;;;;;5.30;2.95;;;;;;;26.43;25.85;98327.53;6535540;21;19989;-74
2024/04/21 06:29:00;;;;;;;5.63;3.45;;;;;;;26.87;25.25;98326.19;6537218;21;20042;-73
2024/04/21 06:31:25;;;;;;;4.85;2.58;;;;;;;27.73;23.03;98330.94;6537377;21;19988;-73
2024/04/21 06:33:51;;;;;;;4.13;2.20;;;;;;;28.09;23.59;98322.81;6534711;21;20066;-76
2024/04/21 06:36:16;;;;;;;3.13;1.83;;;;;;;27.98;24.30;98333.34;6537391;21;19988;-77
2024/04/21 06:38:42;;;;;;;4.38;2.08;;;;;;;28.37;24.16;98342.59;6492767;21;20004;-76
2024/04/21 06:41:07;;;;;;;5.72;1.85;;;;;;;27.76;24.66;98333.16;6536773;21;19988;-73
2024/04/21 06:43:33;;;;;;;2.97;1.92;;;;;;;28.08;24.14;98340.75;6493292;21;20069;-76
2024/04/21 06:45:58;;;;;;;9.73;2.85;;;;;;;27.45;25.69;98342.44;6494435;21;20474;-76
2024/04/21 06:48:24;;;;;;;8.65;2.50;;;;;;;26.97;25.30;98347.03;6493915;21;20064;-78
2024/04/21 06:50:50;;;;;;;8.73;2.20;;;;;;;26.57;24.84;98347.66;6537085;21;19999;-77
2024/04/21 06:53:15;;;;;;;3.97;1.80;;;;;;;26.05;25.00;98339.41;6580686;21;19996;-77
2024/04/21 06:55:41;;;;;;;5.65;2.00;;;;;;;25.57;27.88;98346.34;6579873;21;20004;-74
2024/04/21 06:58:07;;;;;;;4.65;1.58;;;;;;;25.02;26.96;98355.13;6534997;21;19992;-74
2024/04/21 07:00:32;;;;;;;5.60;1.80;;;;;;;24.39;27.83;98348.81;6537466;21;20004;-74
2024/04/21 07:02:58;;;;;;;10.65;2.38;;;;;;;23.91;29.13;98350.13;6537746;21;19988;-75
2024/04/21 07:05:23;;;;;;;3.08;1.90;;;;;;;23.46;31.21;98364.19;6493042;21;19992;-73
2024/04/21 07:07:49;;;;;;;6.90;2.00;;;;;;;23.00;32.27;98358.94;6492950;21;19999;-74
2024/04/21 07:10:14;;;;;;;4.78;1.92;;;;;;;22.67;34.09;98357.94;6481292;22;19993;-75
2024/04/21 07:12:40;;;;;;;3.15;1.90;;;;;;;22.31;32.72;98367.13;6464569;21;19993;-75
2024/04/21 07:15:06;;;;;;;4.38;1.60;;;;;;;21.91;32.66;98360.84;6579234;21;20411;-73
2024/04/21 07:17:31;;;;;;;2.05;1.35;;;;;;;21.49;32.51;98359.03;6535343;21;20008;-76
2024/04/21 07:19:57;;;;;;;3.85;1.40;;;;;;;21.10;32.84;98370.22;6580283;21;20308;-75
2024/04/21 07:22:22;;;;;;;3.10;1.40;;;;;;;20.73;33.15;98364.19;6490951;21;19988;-76
2024/04/21 07:24:48;;;;;;;1.83;1.20;;;;;;;20.37;32.99;98367.75;6532450;21;20356;-77
2024/04/21 07:27:13;;;;;;;1.50;1.20;;;;;;;20.15;33.51;98364.25;6487954;21;19992;-73
2024/04/21 07:29:39;;;;;;;3.15;1.15;;;;;;;19.85;33.93;98372.28;6534388;21;19988;-76
2024/04/21 07:32:05;;;;;;;2.22;1.30;;;;;;;19.61;33.94;98368.91;6492952;21;19998;-77
2024/04/21 07:34:30;;;;;;;3.53;1.25;;;;;;;19.37;34.24;98366.53;6577728;21;20003;-74
2024/04/21 07:36:57;;;;;;;2.25;1.30;;;;;;;19.14;34.96;98383.31;6537119;21;20004;-77
2024/04/21 07:39:23;;;;;;;1.88;1.30;;;;;;;18.94;35.26;98369.75;6538354;21;19988;-76
2024/04/21 07:41:48;;;;;;;4.50;1.60;;;;;;;18.86;35.23;98373.31;6535917;21;20347;-77
2024/04/21 07:44:14;;;;;;;2.47;1.60;;;;;;;18.67;35.88;98368.50;6534960;21;20280;-76
2024/04/21 07:46:40;;;;;;;4.55;1.40;;;;;;;18.60;36.20;98366.56;6537343;21;19992;-77
2024/04/21 07:49:05;;;;;;;2.95;1.80;;;;;;;18.58;36.03;98362.44;6494739;21;20393;-75
2024/04/21 07:51:31;;;;;;;3.83;1.90;;;;;;;18.94;44.13;98367.13;6534318;21;20058;-76
2024/04/21 07:53:56;;;;;;;5.68;2.10;;;;;;;19.00;40.86;98360.31;6492371;21;20383;-78
2024/04/21 07:56:22;;;;;;;7.38;2.10;;;;;;;19.03;39.71;98365.22;6490581;21;20418;-75
2024/04/21 07:58:47;;;;;;;3.97;2.10;;;;;;;19.00;38.35;98370.88;6580641;21;19992;-77
2024/04/21 08:01:13;;;;;;;3.88;1.70;;;;;;;19.02;37.64;98368.88;6534163;21;20133;-73
2024/04/21 08:03:39;;;;;;;2.67;1.77;;;;;;;19.05;36.96;98369.31;6534791;21;19992;-77
2024/04/21 08:06:04;;;;;;;4.72;1.80;;;;;;;19.13;36.43;98365.78;6491936;21;20004;-78
2024/04/21 08:08:30;;;;;;;4.18;1.73;;;;;;;19.20;36.10;98369.34;6576552;21;20073;-75
2024/04/21 08:11:00;;;;;;;3.10;1.98;;;;;;;19.31;35.93;98363.59;6534433;21;20003;-76
2024/04/21 08:13:25;;;;;;;4.82;1.70;;;;;;;19.49;35.17;98378.31;6577677;21;20016;-74
2024/04/21 08:15:51;;;;;;;5.50;1.63;;;;;;;19.75;38.25;98375.19;6491596;21;20008;-75
2024/04/21 08:18:17;;;;;;;3.72;1.80;;;;;;;19.98;36.11;98382.19;6491022;21;20369;-78
2024/04/21 08:20:43;;;;;;;4.00;1.88;;;;;;;20.09;35.57;98367.66;6533958;21;19996;-77
2024/04/21 08:23:09;;;;;;;4.85;1.67;;;;;;;20.21;34.58;98371.47;6577438;21;20028;-75
2024/04/21 08:25:35;;;;;;;4.85;1.60;;;;;;;20.17;34.41;98378.13;6577683;21;20000;-77
2024/04/21 08:28:01;;;;;;;2.88;1.60;;;;;;;20.34;33.28;98368.13;6577983;21;19992;-76
2024/04/21 08:30:27;;;;;;;2.28;1.30;;;;;;;20.48;33.06;98377.00;6490125;21;20358;-75
2024/04/21 08:32:52;;;;;;;2.17;1.20;;;;;;;20.55;33.27;98385.84;6577378;21;20006;-77
2024/04/21 08:35:18;;;;;;;2.13;1.42;;;;;;;20.54;33.54;98378.88;6535206;21;19998;-77
2024/04/21 08:37:43;;;;;;;2.20;1.50;;;;;;;20.61;33.10;98375.28;6533702;21;19992;-78
2024/04/21 08:40:09;;;;;;;2.30;1.30;;;;;;;20.56;33.09;98374.25;6491928;21;20277;-76
2024/04/21 08:42:35;;;;;;;1.60;1.20;;;;;;;20.45;33.49;98374.72;6534745;21;20035;-76
2024/04/21 08:45:10;;;;;;;4.03;1.40;;;;;;;20.50;33.19;98377.66;6490624;21;19988;-75
2024/04/21 08:47:35;;;;;;;2.17;1.20;;;;;;;20.46;33.33;98360.47;6534771;21;19996;-77
2024/04/21 08:50:02;;;;;;;2.65;1.30;;;;;;;20.40;33.53;98357.56;6489432;21;20289;-76
2024/04/21 08:52:30;;;;;;;1.80;1.25;;;;;;;20.35;33.83;98361.78;6534471;21;19995;-77
2024/04/21 08:54:55;;;;;;;;;;;;;;;20.50;40.68;98382.94;6491495;21;20002;-78
2024/04/21 08:57:21;;;;;;;4.03;1.50;;;;;;;20.61;40.17;98362.03;6534889;21;20321;-78
2024/04/21 08:59:46;;;;;;;2.45;1.17;;;;;;;20.60;38.40;98376.31;6491231;21;19992;-79
2024/04/21 09:02:12;;;;;;;2.20;1.38;;;;;;;20.43;36.56;98369.63;6492182;21;19989;-80
2024/04/21 09:04:41;;;;;;;1.65;1.30;;;;;;;19.96;36.65;98369.13;6578594;21;20385;-80
2024/04/21 09:07:07;;;;;;;3.65;1.40;;;;;;;19.75;36.23;98363.75;6534515;21;20066;-78
2024/04/21 09:09:32;;;;;;;3.92;1.42;;;;;;;19.61;36.21;98358.31;6491278;21;20004;-80
2024/04/21 09:11:58;;;;;;;1.95;1.20;;;;;;;19.42;36.73;98358.84;6535165;21;19999;-78
2024/04/21 09:14:23;;;;;;;2.10;1.30;;;;;;;19.23;36.78;98368.16;6535299;21;19988;-80
2024/04/21 09:16:49;;;;;;;1.75;1.35;;;;;;;19.10;36.92;98374.91;6534795;21;20366;-77
2024/04/21 09:19:15;;;;;;;4.20;1.20;;;;;;;19.04;36.80;98367.69;6484461;22;19993;-76
2024/04/21 09:21:40;;;;;;;2.72;1.30;;;;;;;19.00;36.85;98366.41;6448699;21;19997;-85
2024/04/21 09:24:07;;;;;;;2.85;1.40;;;;;;;18.94;37.03;98364.47;6494231;21;19996;-77
2024/04/21 09:26:33;;;;;;;2.47;1.20;;;;;;;18.88;37.04;98366.03;6535568;21;20008;-77
2024/04/21 09:28:58;;;;;;;4.25;1.15;;;;;;;18.62;37.85;98353.97;6493097;21;19988;-78
2024/04/21 09:31:26;;;;;;;4.47;1.50;;;;;;;18.69;43.21;98358.56;6493677;21;19992;-79
2024/04/21 09:33:53;;;;;;;7.47;1.23;;;;;;;18.79;41.07;98348.56;6535807;21;19988;-80
2024/04/21 09:36:20;;;;;;;2.83;1.20;;;;;;;18.71;39.77;98356.56;6494449;21;20231;-82
2024/04/21 09:38:48;;;;;;;3.47;1.20;;;;;;;18.59;39.68;98351.69;6494153;21;20020;-76
2024/04/21 09:41:14;;;;;;;3.35;1.30;;;;;;;18.53;39.09;98348.94;6493841;21;20020;-77
2024/04/21 09:43:41;;;;;;;3.65;1.20;;;;;;;18.26;38.60;98354.59;6493384;21;19992;-78
2024/04/21 09:46:07;;;;;;;3.05;1.25;;;;;;;18.05;39.27;98349.13;6493269;21;19992;-79
2024/04/21 09:48:32;;;;;;;5.45;1.38;;;;;;;18.02;39.02;98349.47;6493023;21;19992;-80
2024/04/21 09:50:59;;;;;;;1.60;1.02;;;;;;;17.98;38.82;98350.78;6493675;21;19988;-81
2024/04/21 09:53:26;;;;;;;2.92;1.27;;;;;;;17.90;39.07;98349.03;6492968;21;20015;-79
2024/04/21 09:55:54;;;;;;;2.08;1.30;;;;;;;17.78;39.38;98343.28;6536664;21;20004;-81
2024/04/21 09:58:21;;;;;;;5.00;1.50;;;;;;;17.75;39.54;98353.38;6580566;21;20020;-79
2024/04/21 10:00:46;;;;;;;3.53;1.50;;;;;;;17.71;39.57;98347.59;6535405;21;20462;-78
2024/04/21 10:03:12;;;;;;;3.80;1.48;;;;;;;17.65;39.46;98354.41;6535990;21;19997;-79
2024/04/21 10:05:37;;;;;;;2.10;1.45;;;;;;;17.54;39.96;98358.22;6493306;21;19988;-82
2024/04/21 10:08:06;;;;;;;5.05;1.50;;;;;;;17.51;40.13;98352.50;6492356;21;20298;-79
2024/04/21 10:10:35;;;;;;;3.92;1.65;;;;;;;17.50;40.10;98350.81;6583523;21;19994;-80
2024/04/21 10:13:01;;;;;;;4.13;1.70;;;;;;;17.51;39.83;98342.75;6541917;21;19996;-81
2024/04/21 10:15:26;;;;;;;3.65;1.70;;;;;;;17.55;40.23;98351.13;6583929;21;20373;-80
2024/04/21 10:17:57;;;;;;;5.03;1.80;;;;;;;17.53;40.23;98343.38;6539058;21;20388;-79
2024/04/21 10:20:29;;;;;;;3.58;1.80;;;;;;;17.50;40.11;98346.38;6536997;21;19992;-80
2024/04/21 10:23:02;;;;;;;4.93;1.70;;;;;;;17.49;40.27;98342.09;6535914;21;20003;-80
2024/04/21 10:25:57;;;;;;;3.47;1.73;;;;;;;17.53;40.07;98346.03;6535775;21;20095;-80
2024/04/21 10:28:45;;;;;;;7.75;1.67;;;;;;;17.62;40.14;98344.19;6516336;22;19993;-80
2024/04/21 10:31:10;;;;;;;5.22;1.80;;;;;;;17.71;40.01;98351.06;6368827;22;20002;-80
2024/04/21 10:33:38;;;;;;;3.33;1.50;;;;;;;17.82;39.87;98341.13;6381885;22;19990;-80
2024/04/21 10:36:04;;;;;;;5.93;1.77;;;;;;;17.98;39.74;98335.78;6382995;22;20005;-75
2024/04/21 10:38:30;;;;;;;2.20;1.55;;;;;;;18.22;39.25;98334.81;6381987;22;19994;-78
2024/04/21 10:40:56;;;;;;;3.90;1.50;;;;;;;18.63;38.50;98333.66;6382346;22;20038;-78
2024/04/21 10:43:24;;;;;;;2.80;1.60;;;;;;;18.93;37.98;98325.81;6382481;22;20001;-78
2024/04/21 10:45:58;;;;;;;4.50;1.85;;;;;;;19.13;37.89;98315.50;6383826;22;20092;-81
2024/04/21 10:48:25;;;;;;;3.80;1.70;;;;;;;19.26;37.36;98312.22;6339984;22;20069;-84
2024/04/21 10:50:50;;;;;;;7.90;1.80;;;;;;;19.43;37.08;98310.22;6382863;22;19991;-84
2024/04/21 10:53:16;;;;;;;4.47;1.50;;;;;;;19.55;36.71;98316.69;6381721;22;20005;-82
2024/04/21 10:55:42;;;;;;;4.93;1.55;;;;;;;19.61;36.29;98307.16;6381365;22;19994;-78
2024/04/21 10:58:08;;;;;;;2.80;1.60;;;;;;;19.67;35.79;98303.78;6340860;22;20402;-78
2024/04/21 11:00:37;;;;;;;3.15;1.35;;;;;;;19.66;35.69;98302.97;6377897;22;19995;-79
2024/04/21 11:03:06;;;;;;;3.30;1.52;;;;;;;19.68;35.46;98300.94;6454414;22;20418;-81
2024/04/21 11:05:35;;;;;;;3.35;1.48;;;;;;;19.71;35.39;98303.22;6488909;21;20067;-84
2024/04/21 11:08:01;;;;;;;5.50;2.88;;;;;;;19.66;35.85;98304.81;6536877;21;19989;-83
2024/04/21 11:10:26;;;;;;;5.68;2.75;;;;;;;19.74;35.58;98304.69;6493391;21;20393;-77
2024/04/21 11:12:52;;;;;;;2.38;1.40;;;;;;;19.92;40.81;98295.53;6580875;21;20385;-75
2024/04/21 11:15:17;;;;;;;2.50;1.10;;;;;;;20.18;41.65;98287.03;6533736;21;20342;-72
2024/04/21 11:17:46;;;;;;;2.33;1.40;;;;;;;20.43;40.05;98296.22;6579917;21;19999;-73
2024/04/21 11:20:12;;;;;;;5.60;2.15;;;;;;;20.48;39.05;98297.47;6535722;21;19996;-72
2024/04/21 11:22:37;;;;;;;5.63;2.40;;;;;;;20.47;38.00;98293.19;6534397;21;19996;-75
2024/04/21 11:25:07;;;;;;;4.78;2.10;;;;;;;20.42;37.17;98291.13;6491398;21;20467;-78
2024/04/21 11:27:37;;;;;;;4.47;1.63;;;;;;;20.32;35.93;98288.78;6489770;21;20006;-77